createdAt,value
2023-02-02T00:00:25.207Z,97114.31
2023-02-02T00:02:51.954Z,97116.03
2023-02-02T00:05:18.676Z,97072.84
2023-02-02T00:07:45.352Z,97079.13
2023-02-02T00:10:12.053Z,97121.72
2023-02-02T00:12:38.673Z,97112.34
2023-02-02T00:15:05.557Z,97077.38
2023-02-02T00:17:32.252Z,97082.72
2023-02-02T00:19:58.775Z,97107.97
2023-02-02T00:22:26.170Z,97114.59
2023-02-02T00:24:52.816Z,97077.94
2023-02-02T00:27:19.372Z,97103.69
2023-02-02T00:29:46.143Z,97118.63
2023-02-02T00:32:12.826Z,97104.50
2023-02-02T00:34:39.445Z,97091.50
2023-02-02T00:37:06.105Z,97114.38
2023-02-02T00:39:32.645Z,97111.19
2023-02-02T00:41:59.277Z,97075.50
2023-02-02T00:44:25.862Z,97084.63
2023-02-02T00:46:52.609Z,97112.34
2023-02-02T00:49:19.305Z,97102.16
2023-02-02T00:51:45.945Z,97090.44
2023-02-02T00:54:12.567Z,97087.41
2023-02-02T00:56:39.285Z,97089.75
2023-02-02T00:59:05.943Z,97078.44
2023-02-02T01:01:32.628Z,97111.38
2023-02-02T01:03:59.117Z,97097.16
2023-02-02T01:06:25.724Z,97103.88
2023-02-02T01:08:52.392Z,97099.34
2023-02-02T01:11:18.968Z,97118.00
2023-02-02T01:13:45.518Z,97123.16
2023-02-02T01:16:12.138Z,97092.41
2023-02-02T01:18:38.773Z,97113.72
2023-02-02T01:21:10.174Z,97080.78
2023-02-02T01:23:37.159Z,97111.59
2023-02-02T01:26:06.190Z,97092.81
2023-02-02T01:28:32.954Z,97111.22
2023-02-02T01:30:59.544Z,97109.78
2023-02-02T01:33:26.129Z,97125.75
2023-02-02T01:35:54.534Z,97126.72
2023-02-02T01:38:21.655Z,97101.34
2023-02-02T01:40:53.005Z,97095.28
2023-02-02T01:43:26.398Z,97086.66
2023-02-02T01:45:53.411Z,97107.31
2023-02-02T01:48:21.431Z,97133.00
2023-02-02T01:50:48.249Z,97073.41
2023-02-02T01:53:14.841Z,97102.97
2023-02-02T01:55:41.483Z,97098.13
2023-02-02T01:58:14.396Z,97116.75
2023-02-02T02:00:41.482Z,97116.19
2023-02-02T02:03:11.048Z,97099.19
2023-02-02T02:05:42.114Z,97112.63
2023-02-02T02:08:29.196Z,97140.72
2023-02-02T02:10:55.868Z,97123.50
2023-02-02T02:13:23.457Z,97112.63
2023-02-02T02:16:04.850Z,97111.41
2023-02-02T02:18:43.607Z,97119.06
2023-02-02T02:21:23.182Z,97124.38
2023-02-02T02:24:15.885Z,97118.06
2023-02-02T02:26:57.731Z,97129.50
2023-02-02T02:29:46.074Z,97156.25
2023-02-02T02:32:32.609Z,97149.53
2023-02-02T02:35:05.611Z,97131.13
2023-02-02T02:38:12.250Z,97122.47
2023-02-02T02:40:42.845Z,97097.50
2023-02-02T02:43:13.381Z,97111.34
2023-02-02T02:45:40.009Z,97121.53
2023-02-02T02:48:08.490Z,97108.16
2023-02-02T02:50:35.153Z,97105.97
2023-02-02T02:53:21.889Z,97134.03
2023-02-02T02:55:53.727Z,97111.34
2023-02-02T02:58:45.784Z,97107.41
2023-02-02T03:01:21.792Z,97127.53
2023-02-02T03:04:12.959Z,97089.84
2023-02-02T03:06:53.136Z,97105.56
2023-02-02T03:09:21.676Z,97136.78
2023-02-02T03:11:48.287Z,97080.94
2023-02-02T03:14:14.926Z,97137.75
2023-02-02T03:16:41.643Z,97132.19
2023-02-02T03:19:08.218Z,97110.34
2023-02-02T03:21:34.881Z,97153.13
2023-02-02T03:24:01.535Z,97164.13
2023-02-02T03:26:29.420Z,97152.59
2023-02-02T03:28:56.453Z,97128.13
2023-02-02T03:31:23.474Z,97160.19
2023-02-02T03:33:50.120Z,97152.91
2023-02-02T03:36:16.781Z,97140.16
2023-02-02T03:38:43.476Z,97152.00
2023-02-02T03:41:10.081Z,97162.72
2023-02-02T03:43:36.673Z,97169.25
2023-02-02T03:46:04.496Z,97162.66
2023-02-02T03:48:31.316Z,97166.03
2023-02-02T03:50:57.891Z,97164.38
2023-02-02T03:53:24.628Z,97128.63
2023-02-02T03:55:51.302Z,97162.41
2023-02-02T03:58:17.944Z,97167.53
2023-02-02T04:00:44.595Z,97192.38
2023-02-02T04:03:11.296Z,97210.28
2023-02-02T04:05:37.969Z,97217.69
2023-02-02T04:08:04.673Z,97236.00
2023-02-02T04:10:31.207Z,97232.41
2023-02-02T04:12:57.764Z,97238.97
2023-02-02T04:15:24.689Z,97233.00
2023-02-02T04:17:51.572Z,97247.19
2023-02-02T04:20:18.169Z,97243.81
2023-02-02T04:22:44.799Z,97238.31
2023-02-02T04:25:11.407Z,97240.06
2023-02-02T04:27:37.990Z,97244.66
2023-02-02T04:30:04.934Z,97217.72
2023-02-02T04:32:31.648Z,97225.16
2023-02-02T04:34:58.595Z,97228.50
2023-02-02T04:37:25.340Z,97246.94
2023-02-02T04:39:51.999Z,97240.44
2023-02-02T04:42:18.585Z,97255.53
2023-02-02T04:44:45.268Z,97241.97
2023-02-02T04:47:11.975Z,97243.19
2023-02-02T04:49:38.616Z,97258.75
2023-02-02T04:52:05.395Z,97250.03
2023-02-02T04:54:32.695Z,97263.75
2023-02-02T04:56:59.317Z,97222.53
2023-02-02T04:59:28.742Z,97244.28
2023-02-02T05:01:56.739Z,97236.25
2023-02-02T05:04:23.327Z,97233.66
2023-02-02T05:06:49.862Z,97244.19
2023-02-02T05:09:16.480Z,97228.44
2023-02-02T05:11:43.062Z,97203.03
2023-02-02T05:14:09.652Z,97229.91
2023-02-02T05:16:36.337Z,97241.09
2023-02-02T05:19:03.001Z,97225.19
2023-02-02T05:21:29.619Z,97235.00
2023-02-02T05:23:56.195Z,97239.13
2023-02-02T05:26:24.871Z,97232.78
2023-02-02T05:28:51.426Z,97241.53
2023-02-02T05:31:18.341Z,97252.81
2023-02-02T05:33:45.095Z,97243.31
2023-02-02T05:36:11.720Z,97247.00
2023-02-02T05:38:38.374Z,97237.50
2023-02-02T05:41:05.261Z,97252.22
2023-02-02T05:43:32.198Z,97266.41
2023-02-02T05:45:58.906Z,97262.94
2023-02-02T05:48:25.928Z,97257.78
2023-02-02T05:51:06.851Z,97273.25
2023-02-02T05:53:33.441Z,97266.91
2023-02-02T05:56:00.004Z,97269.84
2023-02-02T05:58:26.661Z,97267.19
2023-02-02T06:00:55.014Z,97284.94
2023-02-02T06:03:23.152Z,97278.19
2023-02-02T06:05:49.778Z,97303.66
2023-02-02T06:08:16.594Z,97282.31
2023-02-02T06:10:43.321Z,97263.28
2023-02-02T06:13:09.869Z,97278.25
2023-02-02T06:15:36.576Z,97296.00
2023-02-02T06:18:03.194Z,97305.13
2023-02-02T06:20:29.872Z,97294.34
2023-02-02T06:22:56.567Z,97313.13
2023-02-02T06:25:23.615Z,97260.91
2023-02-02T06:27:50.739Z,97294.06
2023-02-02T06:30:17.437Z,97296.72
2023-02-02T06:32:44.178Z,97314.75
2023-02-02T06:35:10.907Z,97318.44
2023-02-02T06:37:37.552Z,97329.00
2023-02-02T06:40:04.637Z,97254.06
2023-02-02T06:42:31.421Z,97299.22
2023-02-02T06:44:58.204Z,97288.25
2023-02-02T06:47:26.810Z,97267.19
2023-02-02T06:49:53.749Z,97289.59
2023-02-02T06:52:20.482Z,97311.28
2023-02-02T06:54:47.148Z,97314.03
2023-02-02T06:57:13.768Z,97339.38
2023-02-02T06:59:40.414Z,97309.81
2023-02-02T07:02:11.074Z,97296.50
2023-02-02T07:04:37.835Z,97297.09
2023-02-02T07:07:04.587Z,97301.59
2023-02-02T07:09:34.747Z,97300.56
2023-02-02T07:12:01.459Z,97309.94
2023-02-02T07:14:28.203Z,97297.47
2023-02-02T07:16:54.923Z,97327.28
2023-02-02T07:19:21.745Z,97315.69
2023-02-02T07:21:48.540Z,97324.81
2023-02-02T07:24:15.113Z,97342.81
2023-02-02T07:26:41.924Z,97337.16
2023-02-02T07:29:11.309Z,97323.63
2023-02-02T07:31:37.994Z,97323.63
2023-02-02T07:34:04.950Z,97323.03
2023-02-02T07:36:31.805Z,97350.34
2023-02-02T07:38:58.561Z,97349.25
2023-02-02T07:41:25.230Z,97348.34
2023-02-02T07:43:51.985Z,97344.28
2023-02-02T07:46:19.068Z,97363.34
2023-02-02T07:48:46.193Z,97340.19
2023-02-02T07:51:14.478Z,97355.88
2023-02-02T07:53:52.029Z,97347.31
2023-02-02T07:56:20.655Z,97346.00
2023-02-02T07:58:47.466Z,97354.09
2023-02-02T08:01:15.368Z,97333.06
2023-02-02T08:03:42.206Z,97368.72
2023-02-02T08:06:19.423Z,97358.44
2023-02-02T08:08:46.643Z,97355.31
2023-02-02T08:11:14.201Z,97360.41
2023-02-02T08:13:41.441Z,97366.81
2023-02-02T08:16:08.280Z,97350.09
2023-02-02T08:18:35.396Z,97345.00
2023-02-02T08:21:03.554Z,97334.69
2023-02-02T08:23:30.195Z,97331.66
2023-02-02T08:26:15.939Z,97367.19
2023-02-02T08:28:43.174Z,97365.47
2023-02-02T08:31:20.895Z,97373.50
2023-02-02T08:33:47.769Z,97357.81
2023-02-02T08:36:15.302Z,97388.41
2023-02-02T08:38:42.105Z,97352.88
2023-02-02T08:41:14.864Z,97363.72
2023-02-02T08:43:41.574Z,97384.41
2023-02-02T08:46:09.865Z,97372.97
2023-02-02T08:48:36.708Z,97365.78
2023-02-02T08:51:03.847Z,97356.94
2023-02-02T08:53:31.782Z,97385.84
2023-02-02T08:56:02.644Z,97368.88
2023-02-02T08:58:29.215Z,97385.09
2023-02-02T09:00:55.922Z,97396.78
2023-02-02T09:03:22.551Z,97397.25
2023-02-02T09:05:49.183Z,97388.81
2023-02-02T09:08:15.809Z,97369.06
2023-02-02T09:10:42.374Z,97400.91
2023-02-02T09:13:09.168Z,97376.72
2023-02-02T09:15:35.748Z,97379.28
2023-02-02T09:18:02.438Z,97397.72
2023-02-02T09:20:29.058Z,97397.88
2023-02-02T09:22:56.314Z,97373.41
2023-02-02T09:25:24.167Z,97412.34
2023-02-02T09:27:50.961Z,97361.47
2023-02-02T09:30:18.320Z,97379.44
2023-02-02T09:32:44.837Z,97372.72
2023-02-02T09:35:11.307Z,97425.34
2023-02-02T09:37:38.329Z,97425.78
2023-02-02T09:40:05.437Z,97399.13
2023-02-02T09:42:44.432Z,97395.91
2023-02-02T09:45:16.935Z,97375.84
2023-02-02T09:47:57.784Z,97417.38
2023-02-02T09:50:34.527Z,97406.16
2023-02-02T09:53:19.759Z,97405.63
2023-02-02T09:55:48.576Z,97414.94
2023-02-02T09:58:51.960Z,97402.09
2023-02-02T10:01:22.107Z,97424.81
2023-02-02T10:04:05.394Z,97411.34
2023-02-02T10:06:44.502Z,97398.56
2023-02-02T10:09:23.940Z,97401.13
2023-02-02T10:12:14.216Z,97398.88
2023-02-02T10:14:46.905Z,97400.13
2023-02-02T10:17:32.190Z,97386.84
2023-02-02T10:20:20.230Z,97412.28
2023-02-02T10:22:47.030Z,97389.19
2023-02-02T10:25:14.594Z,97397.66
2023-02-02T10:27:41.312Z,97387.03
2023-02-02T10:30:15.695Z,97371.13
2023-02-02T10:32:59.626Z,97389.88
2023-02-02T10:35:57.118Z,97390.69
2023-02-02T10:38:52.480Z,97392.59
2023-02-02T10:41:40.542Z,97376.34
2023-02-02T10:44:45.598Z,97399.56
2023-02-02T10:47:14.547Z,97382.34
2023-02-02T10:49:41.230Z,97384.25
2023-02-02T10:52:10.579Z,97378.13
2023-02-02T10:55:03.954Z,97366.63
2023-02-02T10:57:48.345Z,97358.66
2023-02-02T11:00:45.280Z,97347.84
2023-02-02T11:03:13.236Z,97361.53
2023-02-02T11:05:39.769Z,97374.97
2023-02-02T11:08:20.064Z,97350.13
2023-02-02T11:10:48.529Z,97373.78
2023-02-02T11:13:29.636Z,97341.78
2023-02-02T11:16:41.483Z,97355.94
2023-02-02T11:19:18.042Z,97357.84
2023-02-02T11:21:48.077Z,97358.22
2023-02-02T11:24:28.114Z,97372.31
2023-02-02T11:27:12.489Z,97371.13
2023-02-02T11:29:38.877Z,97343.78
2023-02-02T11:32:20.020Z,97339.44
2023-02-02T11:34:46.700Z,97342.28
2023-02-02T11:37:15.110Z,97335.31
2023-02-02T11:39:42.101Z,97346.06
2023-02-02T11:42:16.824Z,97351.91
2023-02-02T11:44:47.597Z,97344.88
2023-02-02T11:47:22.239Z,97331.69
2023-02-02T11:49:49.779Z,97388.22
2023-02-02T11:52:19.317Z,97344.81
2023-02-02T11:54:47.704Z,97358.66
2023-02-02T11:57:17.602Z,97356.31
2023-02-02T11:59:44.594Z,97319.63
2023-02-02T12:02:20.724Z,97364.88
2023-02-02T12:04:48.045Z,97366.63
2023-02-02T12:07:32.803Z,97365.25
2023-02-02T12:10:25.334Z,97331.69
2023-02-02T12:13:07.104Z,97332.41
2023-02-02T12:15:54.151Z,97356.75
2023-02-02T12:18:58.517Z,97355.72
2023-02-02T12:21:44.875Z,97346.13
2023-02-02T12:24:29.874Z,97339.56
2023-02-02T12:27:23.728Z,97337.66
2023-02-02T12:29:56.327Z,97342.28
2023-02-02T12:32:28.769Z,97333.03
2023-02-02T12:35:16.380Z,97329.31
2023-02-02T12:37:53.552Z,97352.75
2023-02-02T12:40:35.172Z,97331.69
2023-02-02T12:43:31.483Z,97365.50
2023-02-02T12:46:11.780Z,97269.47
2023-02-02T12:48:48.883Z,97319.53
2023-02-02T12:51:38.093Z,97328.97
2023-02-02T12:54:33.743Z,97342.47
2023-02-02T12:57:15.977Z,97332.47
2023-02-02T12:59:42.474Z,97333.22
2023-02-02T13:02:18.682Z,97327.78
2023-02-02T13:05:03.844Z,97321.00
2023-02-02T13:07:42.436Z,97346.72
2023-02-02T13:10:37.839Z,97354.69
2023-02-02T13:13:09.095Z,97366.09
2023-02-02T13:16:06.546Z,97281.03
2023-02-02T13:18:39.500Z,97353.16
2023-02-02T13:21:12.213Z,97362.59
2023-02-02T13:23:42.061Z,97349.25
2023-02-02T13:26:24.591Z,97351.66
2023-02-02T13:29:01.558Z,97340.31
2023-02-02T13:32:10.757Z,97354.63
2023-02-02T13:34:57.474Z,97352.69
2023-02-02T13:37:39.513Z,97330.34
2023-02-02T13:40:26.680Z,97321.22
2023-02-02T13:43:08.423Z,97336.47
2023-02-02T13:45:49.383Z,97349.31
2023-02-02T13:48:37.586Z,97339.28
2023-02-02T13:51:10.170Z,97376.53
2023-02-02T13:53:45.879Z,97369.00
2023-02-02T13:56:39.690Z,97398.13
2023-02-02T13:59:15.220Z,97357.78
2023-02-02T14:01:42.559Z,97360.88
2023-02-02T14:04:26.474Z,97349.44
2023-02-02T14:06:58.292Z,97382.13
2023-02-02T14:09:26.380Z,97371.16
2023-02-02T14:11:57.339Z,97368.94
2023-02-02T14:14:23.952Z,97372.19
2023-02-02T14:16:50.798Z,97377.75
2023-02-02T14:19:27.362Z,97405.13
2023-02-02T14:22:03.158Z,97376.44
2023-02-02T14:24:29.561Z,97382.47
2023-02-02T14:26:57.533Z,97398.09
2023-02-02T14:29:27.069Z,97403.81
2023-02-02T14:31:54.316Z,97395.72
2023-02-02T14:34:27.116Z,97419.31
2023-02-02T14:37:16.997Z,97441.56
2023-02-02T14:40:01.823Z,97426.81
2023-02-02T14:42:53.141Z,97415.59
2023-02-02T14:45:38.601Z,97456.84
2023-02-02T14:48:21.386Z,97450.78
2023-02-02T14:50:58.091Z,97454.88
2023-02-02T14:53:29.351Z,97475.94
2023-02-02T14:55:58.035Z,97479.41
2023-02-02T14:58:27.846Z,97496.56
2023-02-02T15:01:13.263Z,97471.59
2023-02-02T15:03:48.439Z,97467.97
2023-02-02T15:06:30.189Z,97509.56
2023-02-02T15:09:21.501Z,97501.97
2023-02-02T15:12:01.383Z,97495.75
2023-02-02T15:14:43.118Z,97534.91
2023-02-02T15:17:31.323Z,97528.13
2023-02-02T15:20:08.397Z,97523.28
2023-02-02T15:22:41.711Z,97545.09
2023-02-02T15:25:34.499Z,97514.19
2023-02-02T15:28:29.396Z,97543.28
2023-02-02T15:31:20.729Z,97528.06
2023-02-02T15:33:50.286Z,97540.75
2023-02-02T15:36:18.781Z,97529.97
2023-02-02T15:38:45.512Z,97550.78
2023-02-02T15:41:33.024Z,97559.81
2023-02-02T15:44:00.265Z,97577.03
2023-02-02T15:46:29.184Z,97594.34
2023-02-02T15:49:31.464Z,97564.09
2023-02-02T15:52:01.043Z,97590.38
2023-02-02T15:54:29.351Z,97603.69
2023-02-02T15:56:56.810Z,97598.66
2023-02-02T15:59:25.413Z,97582.75
2023-02-02T16:02:04.407Z,97595.41
2023-02-02T16:04:35.208Z,97599.09
2023-02-02T16:07:02.184Z,97594.38
2023-02-02T16:09:36.557Z,97611.72
2023-02-02T16:12:04.294Z,97602.78
2023-02-02T16:14:31.108Z,97616.44
2023-02-02T16:17:27.241Z,97637.25
2023-02-02T16:20:07.947Z,97630.53
2023-02-02T16:22:35.654Z,97649.72
2023-02-02T16:25:06.592Z,97632.38
2023-02-02T16:27:33.338Z,97645.00
2023-02-02T16:30:04.187Z,97661.09
2023-02-02T16:32:30.711Z,97666.59
2023-02-02T16:34:57.616Z,97657.03
2023-02-02T16:37:26.004Z,97673.56
2023-02-02T16:39:52.867Z,97683.34
2023-02-02T16:42:29.379Z,97674.16
2023-02-02T16:44:56.798Z,97686.84
2023-02-02T16:47:29.371Z,97686.59
2023-02-02T16:50:07.969Z,97692.31
2023-02-02T16:52:53.980Z,97685.19
2023-02-02T16:55:20.356Z,97712.28
2023-02-02T16:57:47.689Z,97720.44
2023-02-02T17:00:21.969Z,97713.31
2023-02-02T17:02:49.630Z,97732.31
2023-02-02T17:05:27.299Z,97736.56
2023-02-02T17:08:02.592Z,97762.47
2023-02-02T17:10:33.414Z,97723.72
2023-02-02T17:13:03.927Z,97727.59
2023-02-02T17:15:34.520Z,97747.38
2023-02-02T17:18:01.904Z,97738.03
2023-02-02T17:20:28.665Z,97771.25
2023-02-02T17:25:31.461Z,97768.41
2023-02-02T17:27:58.811Z,97770.03
2023-02-02T17:30:25.674Z,97739.63
2023-02-02T17:32:52.347Z,97774.91
2023-02-02T17:35:24.529Z,97795.31
2023-02-02T17:37:51.368Z,97795.53
2023-02-02T17:40:18.782Z,97784.31
2023-02-02T17:42:45.884Z,97774.53
2023-02-02T17:45:18.066Z,97801.44
2023-02-02T17:47:47.507Z,97794.91
2023-02-02T17:50:14.180Z,97816.31
2023-02-02T17:52:43.774Z,97807.97
2023-02-02T17:55:12.849Z,97804.72
2023-02-02T17:57:39.531Z,97807.16
2023-02-02T18:00:06.884Z,97808.38
2023-02-02T18:02:33.768Z,97812.25
2023-02-02T18:05:04.338Z,97807.16
2023-02-02T18:07:31.013Z,97804.31
2023-02-02T18:09:57.594Z,97844.69
2023-02-02T18:12:24.318Z,97839.38
2023-02-02T18:14:55.010Z,97834.06
2023-02-02T18:17:21.661Z,97838.16
2023-02-02T18:19:48.633Z,97845.91
2023-02-02T18:22:15.300Z,97835.50
2023-02-02T18:24:41.957Z,97825.72
2023-02-02T18:27:08.521Z,97870.19
2023-02-02T18:29:35.310Z,97857.13
2023-02-02T18:32:02.467Z,97850.59
2023-02-02T18:34:30.771Z,97846.31
2023-02-02T18:36:57.459Z,97836.31
2023-02-02T18:39:24.080Z,97876.72
2023-02-02T18:41:50.690Z,97863.03
2023-02-02T18:44:17.300Z,97871.41
2023-02-02T18:46:44.013Z,97860.59
2023-02-02T18:49:11.027Z,97846.72
2023-02-02T18:51:37.598Z,97843.06
2023-02-02T18:54:04.361Z,97869.56
2023-02-02T18:56:31.232Z,97866.28
2023-02-02T18:58:58.063Z,97858.16
2023-02-02T19:01:24.919Z,97854.69
2023-02-02T19:03:52.747Z,97908.53
2023-02-02T19:06:19.623Z,97873.03
2023-02-02T19:08:46.297Z,97876.09
2023-02-02T19:11:15.702Z,97856.94
2023-02-02T19:13:42.358Z,97865.28
2023-02-02T19:16:25.908Z,97876.72
2023-02-02T19:18:56.064Z,97879.38
2023-02-02T19:21:22.822Z,97883.84
2023-02-02T19:23:49.385Z,97895.06
2023-02-02T19:26:24.254Z,97888.34
2023-02-02T19:28:51.846Z,97893.00
2023-02-02T19:31:18.707Z,97871.41
2023-02-02T19:33:47.762Z,97893.66
2023-02-02T19:36:19.761Z,97870.38
2023-02-02T19:38:46.661Z,97899.34
2023-02-02T19:41:21.140Z,97902.59
2023-02-02T19:43:48.501Z,97893.00
2023-02-02T19:46:22.538Z,97877.72
2023-02-02T19:48:50.782Z,97876.50
2023-02-02T19:51:39.604Z,97885.88
2023-02-02T19:54:12.967Z,97887.09
2023-02-02T19:56:39.776Z,97893.81
2023-02-02T19:59:12.510Z,97893.22
2023-02-02T20:01:39.279Z,97901.19
2023-02-02T20:04:13.154Z,97877.72
2023-02-02T20:06:56.620Z,97896.28
2023-02-02T20:09:28.572Z,97895.06
2023-02-02T20:11:55.347Z,97865.69
2023-02-02T20:14:27.397Z,97898.53
2023-02-02T20:17:03.138Z,97885.69
2023-02-02T20:19:33.028Z,97894.84
2023-02-02T20:21:59.720Z,97878.94
2023-02-02T20:24:36.833Z,97908.13
2023-02-02T20:27:23.863Z,97878.75
2023-02-02T20:29:51.551Z,97860.38
2023-02-02T20:32:26.454Z,97856.31
2023-02-02T20:34:54.322Z,97887.91
2023-02-02T20:37:25.019Z,97882.63
2023-02-02T20:39:59.848Z,97889.34
2023-02-02T20:42:26.566Z,97858.94
2023-02-02T20:44:53.240Z,97880.56
2023-02-02T20:47:20.150Z,97884.84
2023-02-02T20:49:46.949Z,97900.56
2023-02-02T20:52:15.081Z,97902.19
2023-02-02T20:54:41.784Z,97875.06
2023-02-02T20:57:08.364Z,97877.50
2023-02-02T20:59:35.039Z,97886.09
2023-02-02T21:02:01.843Z,97863.25
2023-02-02T21:04:28.644Z,97885.28
2023-02-02T21:06:55.357Z,97878.31
2023-02-02T21:09:21.938Z,97857.94
2023-02-02T21:11:48.671Z,97859.75
2023-02-02T21:14:15.346Z,97874.06
2023-02-02T21:16:42.051Z,97850.81
2023-02-02T21:19:09.411Z,97888.75
2023-02-02T21:21:36.314Z,97873.66
2023-02-02T21:24:03.003Z,97853.25
2023-02-02T21:26:29.686Z,97876.09
2023-02-02T21:28:57.004Z,97896.06
2023-02-02T21:31:25.258Z,97882.81
2023-02-02T21:33:52.196Z,97885.88
2023-02-02T21:36:37.889Z,97896.50
2023-02-02T21:39:24.480Z,97912.81
2023-02-02T21:42:11.050Z,97898.53
2023-02-02T21:44:41.488Z,97908.94
2023-02-02T21:47:36.995Z,97884.44
2023-02-02T21:50:17.754Z,97888.75
2023-02-02T21:52:44.631Z,97901.38
2023-02-02T21:55:35.311Z,97875.91
2023-02-02T21:58:13.687Z,97901.19
2023-02-02T22:00:40.274Z,97894.84
2023-02-02T22:03:35.234Z,97887.13
2023-02-02T22:06:18.547Z,97889.56
2023-02-02T22:08:45.210Z,97908.13
2023-02-02T22:11:26.380Z,97900.16
2023-02-02T22:13:53.033Z,97907.50
2023-02-02T22:16:20.053Z,97910.97
2023-02-02T22:18:47.093Z,97890.97
2023-02-02T22:21:14.681Z,97928.28
2023-02-02T22:23:41.288Z,97909.72
2023-02-02T22:26:25.818Z,97897.31
2023-02-02T22:28:52.405Z,97897.53
2023-02-02T22:31:19.288Z,97877.72
2023-02-02T22:33:46.339Z,97895.25
2023-02-02T22:36:13.124Z,97899.13
2023-02-02T22:38:39.843Z,97899.94
2023-02-02T22:41:06.603Z,97895.81
2023-02-02T22:43:33.217Z,97891.91
2023-02-02T22:45:59.902Z,97880.88
2023-02-02T22:48:26.619Z,97894.06
2023-02-02T22:50:53.253Z,97892.63
2023-02-02T22:53:19.911Z,97927.25
2023-02-02T22:55:46.514Z,97907.34
2023-02-02T22:58:13.207Z,97901.84
2023-02-02T23:00:39.825Z,97922.63
2023-02-02T23:03:06.492Z,97921.72
2023-02-02T23:05:33.211Z,97926.22
2023-02-02T23:07:59.789Z,97929.09
2023-02-02T23:10:27.359Z,97887.75
2023-02-02T23:12:56.274Z,97920.47
2023-02-02T23:15:23.012Z,97883.56
2023-02-02T23:17:49.651Z,97901.16
2023-02-02T23:20:16.805Z,97896.28
2023-02-02T23:22:43.532Z,97901.97
2023-02-02T23:25:11.632Z,97914.69
2023-02-02T23:27:38.523Z,97922.44
2023-02-02T23:30:06.016Z,97887.69
2023-02-02T23:32:33.032Z,97926.09
2023-02-02T23:34:59.650Z,97920.38
2023-02-02T23:37:26.213Z,97925.25
2023-02-02T23:39:52.844Z,97920.91
2023-02-02T23:42:19.612Z,97892.34
2023-02-02T23:44:46.200Z,97911.25
2023-02-02T23:47:12.935Z,97912.56
2023-02-02T23:49:39.598Z,97905.41
2023-02-02T23:52:06.355Z,97903.50
2023-02-02T23:54:32.984Z,97906.44
2023-02-02T23:56:59.619Z,97899.63
2023-02-02T23:59:26.259Z,97941.34
